Time,TemperatureF,DewpointF,PressureIn,WindDirection,WindDirectionDegrees,WindSpeedMPH,WindSpeedGustMPH,Humidity,HourlyPrecipIn,Conditions,Clouds,dailyrainin,SoftwareType,DateUTC
2013-07-07 00:14:00,76.9,72.0,30.04,West,259,4.0,9.0,85,0.00,,,0.00,weatherlink.com 1.10,2013-07-07 04:14:00,
2013-07-07 00:29:00,76.6,72.0,30.04,WNW,289,10.0,10.0,85,0.00,,,0.00,weatherlink.com 1.10,2013-07-07 04:29:00,
2013-07-07 00:44:00,75.9,72.0,30.04,WNW,297,1.0,7.0,86,0.00,,,0.00,weatherlink.com 1.10,2013-07-07 04:44:00,
2013-07-07 00:59:00,75.5,71.0,30.04,West,273,3.0,7.0,87,0.00,,,0.00,weatherlink.com 1.10,2013-07-07 04:59:00,
2013-07-07 01:14:00,75.1,71.0,30.04,WSW,240,6.0,9.0,88,0.00,,,0.00,weatherlink.com 1.10,2013-07-07 05:14:00,
2013-07-07 01:29:00,74.6,71.0,30.04,West,261,5.0,7.0,88,0.00,,,0.00,weatherlink.com 1.10,2013-07-07 05:29:00,
2013-07-07 01:44:00,74.2,71.0,30.04,West,281,2.0,6.0,89,0.00,,,0.00,weatherlink.com 1.10,2013-07-07 05:44:00,
2013-07-07 01:59:00,73.8,71.0,30.04,WNW,291,2.0,4.0,90,0.00,,,0.00,weatherlink.com 1.10,2013-07-07 05:59:00,
2013-07-07 02:14:00,73.5,71.0,30.04,WNW,284,2.0,5.0,91,0.00,,,0.00,weatherlink.com 1.10,2013-07-07 06:14:00,
2013-07-07 02:29:00,73.2,71.0,30.04,WNW,302,2.0,4.0,91,0.00,,,0.00,weatherlink.com 1.10,2013-07-07 06:29:00,
2013-07-07 02:44:00,73.0,71.0,30.04,WNW,296,3.0,5.0,92,0.00,,,0.00,weatherlink.com 1.10,2013-07-07 06:44:00,
2013-07-07 02:59:00,72.7,70.0,30.04,WNW,290,1.0,4.0,92,0.00,,,0.00,weatherlink.com 1.10,2013-07-07 06:59:00,
2013-07-07 03:14:00,72.3,70.0,30.04,NW,304,2.0,3.0,92,0.00,,,0.00,weatherlink.com 1.10,2013-07-07 07:14:00,
2013-07-07 03:29:00,72.0,70.0,30.04,WNW,297,1.0,3.0,93,0.00,,,0.00,weatherlink.com 1.10,2013-07-07 07:29:00,
2013-07-07 03:44:00,71.7,70.0,30.03,NW,308,3.0,5.0,93,0.00,,,0.00,weatherlink.com 1.10,2013-07-07 07:44:00,
2013-07-07 04:00:00,71.7,70.0,30.04,NW,307,0.0,4.0,94,0.00,,,0.00,weatherlink.com 1.10,2013-07-07 08:00:00,
2013-07-07 04:15:00,71.7,70.0,30.03,West,278,0.0,3.0,94,0.00,,,0.00,weatherlink.com 1.10,2013-07-07 08:15:00,
2013-07-07 04:30:00,71.6,70.0,30.04,West,278,0.0,1.0,94,0.00,,,0.00,weatherlink.com 1.10,2013-07-07 08:30:00,
2013-07-07 04:45:00,71.1,69.0,30.04,West,278,0.0,0.0,94,0.00,,,0.00,weatherlink.com 1.10,2013-07-07 08:45:00,
2013-07-07 05:00:00,70.8,69.0,30.04,West,278,0.0,1.0,94,0.00,,,0.00,weatherlink.com 1.10,2013-07-07 09:00:00,
2013-07-07 05:15:00,71.0,70.0,30.04,West,278,0.0,1.0,95,0.00,,,0.00,weatherlink.com 1.10,2013-07-07 09:15:00,
2013-07-07 05:30:00,70.9,70.0,30.04,West,278,0.0,1.0,95,0.00,,,0.00,weatherlink.com 1.10,2013-07-07 09:30:00,
2013-07-07 05:45:00,70.6,69.0,30.04,West,278,0.0,0.0,95,0.00,,,0.00,weatherlink.com 1.10,2013-07-07 09:45:00,
2013-07-07 06:00:00,70.5,69.0,30.04,West,278,0.0,0.0,95,0.00,,,0.00,weatherlink.com 1.10,2013-07-07 10:00:00,
2013-07-07 06:15:00,71.6,70.0,30.04,WNW,284,1.0,2.0,96,0.00,,,0.00,weatherlink.com 1.10,2013-07-07 10:15:00,
2013-07-07 06:30:00,72.9,72.0,30.04,West,278,0.0,3.0,96,0.00,,,0.00,weatherlink.com 1.10,2013-07-07 10:30:00,
2013-07-07 06:45:00,73.5,72.0,30.04,WNW,300,1.0,3.0,96,0.00,,,0.00,weatherlink.com 1.10,2013-07-07 10:45:00,
2013-07-07 07:00:00,74.8,73.0,30.04,WNW,293,1.0,5.0,94,0.00,,,0.00,weatherlink.com 1.10,2013-07-07 11:00:00,
2013-07-07 07:15:00,75.8,73.0,30.05,NW,319,3.0,5.0,91,0.00,,,0.00,weatherlink.com 1.10,2013-07-07 11:15:00,
2013-07-07 07:30:00,77.6,74.0,30.05,WSW,257,1.0,7.0,88,0.00,,,0.00,weatherlink.com 1.10,2013-07-07 11:30:00,
2013-07-07 07:45:00,79.3,75.0,30.05,WNW,283,1.0,5.0,86,0.00,,,0.00,weatherlink.com 1.10,2013-07-07 11:45:00,
2013-07-07 08:00:00,80.7,75.0,30.05,West,276,4.0,6.0,82,0.00,,,0.00,weatherlink.com 1.10,2013-07-07 12:00:00,
2013-07-07 08:15:00,81.3,75.0,30.05,West,280,1.0,5.0,82,0.00,,,0.00,weatherlink.com 1.10,2013-07-07 12:15:00,
2013-07-07 08:30:00,81.6,75.0,30.05,WSW,250,3.0,7.0,79,0.00,,,0.00,weatherlink.com 1.10,2013-07-07 12:30:00,
2013-07-07 08:45:00,83.1,74.0,30.05,West,270,3.0,7.0,75,0.00,,,0.00,weatherlink.com 1.10,2013-07-07 12:45:00,
2013-07-07 09:00:00,83.9,75.0,30.05,West,269,1.0,5.0,75,0.00,,,0.00,weatherlink.com 1.10,2013-07-07 13:00:00,
2013-07-07 09:15:00,84.6,74.0,30.04,WNW,282,1.0,5.0,71,0.00,,,0.00,weatherlink.com 1.10,2013-07-07 13:15:00,
2013-07-07 09:31:00,85.4,75.0,30.04,WNW,297,3.0,5.0,72,0.00,,,0.00,weatherlink.com 1.10,2013-07-07 13:31:00,
2013-07-07 09:46:00,85.7,75.0,30.04,West,262,3.0,6.0,70,0.00,,,0.00,weatherlink.com 1.10,2013-07-07 13:46:00,
2013-07-07 10:01:00,86.1,75.0,30.04,West,264,5.0,7.0,69,0.00,,,0.00,weatherlink.com 1.10,2013-07-07 14:01:00,
2013-07-07 10:16:00,86.8,76.0,30.04,WNW,290,1.0,5.0,70,0.00,,,0.00,weatherlink.com 1.10,2013-07-07 14:16:00,
2013-07-07 10:31:00,86.7,76.0,30.04,West,281,1.0,8.0,70,0.00,,,0.00,weatherlink.com 1.10,2013-07-07 14:31:00,
2013-07-07 10:46:00,85.6,76.0,30.04,WNW,293,4.0,8.0,72,0.00,,,0.00,weatherlink.com 1.10,2013-07-07 14:46:00,
2013-07-07 11:01:00,85.0,75.0,30.03,WSW,257,5.0,8.0,72,0.00,,,0.00,weatherlink.com 1.10,2013-07-07 15:01:00,
2013-07-07 11:16:00,84.5,75.0,30.03,WSW,250,4.0,9.0,73,0.00,,,0.00,weatherlink.com 1.10,2013-07-07 15:16:00,
2013-07-07 11:31:00,85.2,77.0,30.03,West,278,4.0,7.0,75,0.00,,,0.00,weatherlink.com 1.10,2013-07-07 15:31:00,
2013-07-07 11:46:00,85.6,76.0,30.02,West,276,5.0,10.0,72,0.00,,,0.00,weatherlink.com 1.10,2013-07-07 15:46:00,
2013-07-07 12:01:00,86.3,77.0,30.02,NW,304,5.0,7.0,73,0.00,,,0.00,weatherlink.com 1.10,2013-07-07 16:01:00,
2013-07-07 12:16:00,85.7,77.0,30.03,West,277,4.0,9.0,74,0.00,,,0.00,weatherlink.com 1.10,2013-07-07 16:16:00,
2013-07-07 12:31:00,85.4,77.0,30.03,West,276,2.0,9.0,75,0.00,,,0.00,weatherlink.com 1.10,2013-07-07 16:31:00,
2013-07-07 12:46:00,85.3,76.0,30.03,West,264,4.0,10.0,73,0.00,,,0.00,weatherlink.com 1.10,2013-07-07 16:46:00,
2013-07-07 13:01:00,85.3,77.0,30.02,WNW,288,5.0,11.0,76,0.00,,,0.00,weatherlink.com 1.10,2013-07-07 17:01:00,
2013-07-07 13:16:00,85.7,77.0,30.02,West,267,5.0,11.0,75,0.00,,,0.00,weatherlink.com 1.10,2013-07-07 17:16:00,
2013-07-07 13:31:00,85.7,76.0,30.02,West,261,9.0,13.0,72,0.00,,,0.00,weatherlink.com 1.10,2013-07-07 17:31:00,
2013-07-07 13:46:00,86.1,77.0,30.02,WSW,258,2.0,11.0,75,0.00,,,0.00,weatherlink.com 1.10,2013-07-07 17:46:00,
2013-07-07 14:01:00,87.3,77.0,30.01,West,271,8.0,12.0,71,0.00,,,0.00,weatherlink.com 1.10,2013-07-07 18:01:00,
2013-07-07 14:16:00,86.6,77.0,30.01,West,276,3.0,9.0,73,0.00,,,0.00,weatherlink.com 1.10,2013-07-07 18:16:00,
2013-07-07 14:31:00,86.7,76.0,30.01,WSW,246,6.0,10.0,71,0.00,,,0.00,weatherlink.com 1.10,2013-07-07 18:31:00,
2013-07-07 14:46:00,86.8,77.0,30.00,WSW,248,0.0,9.0,72,0.00,,,0.00,weatherlink.com 1.10,2013-07-07 18:46:00,
2013-07-07 15:01:00,87.0,76.0,29.99,South,179,3.0,7.0,70,0.00,,,0.00,weatherlink.com 1.10,2013-07-07 19:01:00,
2013-07-07 15:16:00,86.7,76.0,29.99,SW,221,2.0,9.0,70,0.00,,,0.00,weatherlink.com 1.10,2013-07-07 19:16:00,
2013-07-07 15:31:00,86.3,75.0,29.99,West,271,2.0,9.0,68,0.00,,,0.00,weatherlink.com 1.10,2013-07-07 19:31:00,
2013-07-07 15:46:00,87.0,73.0,29.98,SW,235,1.0,8.0,64,0.00,,,0.00,weatherlink.com 1.10,2013-07-07 19:46:00,
2013-07-07 16:01:00,86.6,73.0,29.98,SE,139,0.0,12.0,65,0.00,,,0.00,weatherlink.com 1.10,2013-07-07 20:01:00,
2013-07-07 16:16:00,86.6,72.0,29.99,WSW,240,4.0,10.0,63,0.00,,,0.00,weatherlink.com 1.10,2013-07-07 20:16:00,
2013-07-07 16:31:00,86.3,72.0,29.99,West,274,0.0,9.0,63,0.00,,,0.00,weatherlink.com 1.10,2013-07-07 20:31:00,
2013-07-07 16:46:00,85.6,73.0,29.98,West,281,1.0,7.0,65,0.00,,,0.00,weatherlink.com 1.10,2013-07-07 20:46:00,
2013-07-07 17:01:00,84.0,72.0,29.98,West,281,3.0,11.0,68,0.00,,,0.00,weatherlink.com 1.10,2013-07-07 21:01:00,
2013-07-07 17:16:00,82.8,72.0,29.98,WSW,243,5.0,14.0,70,0.00,,,0.00,weatherlink.com 1.10,2013-07-07 21:16:00,
2013-07-07 17:31:00,82.5,73.0,29.98,South,187,1.0,8.0,72,0.00,,,0.00,weatherlink.com 1.10,2013-07-07 21:31:00,
2013-07-07 17:46:00,82.0,73.0,29.97,SE,139,0.0,14.0,73,0.00,,,0.00,weatherlink.com 1.10,2013-07-07 21:46:00,
2013-07-07 18:01:00,80.4,73.0,29.97,West,272,2.0,11.0,77,0.00,,,0.00,weatherlink.com 1.10,2013-07-07 22:01:00,
2013-07-07 18:16:00,79.1,72.0,29.97,West,262,5.0,9.0,79,0.00,,,0.00,weatherlink.com 1.10,2013-07-07 22:16:00,
2013-07-07 18:31:00,78.3,72.0,29.98,West,263,5.0,7.0,82,0.00,,,0.00,weatherlink.com 1.10,2013-07-07 22:31:00,
2013-07-07 18:46:00,77.7,72.0,29.97,WSW,255,3.0,10.0,83,0.00,,,0.00,weatherlink.com 1.10,2013-07-07 22:46:00,
2013-07-07 19:01:00,77.4,72.0,29.97,West,274,2.0,8.0,83,0.00,,,0.00,weatherlink.com 1.10,2013-07-07 23:01:00,
2013-07-07 19:16:00,77.0,72.0,29.97,West,278,4.0,8.0,84,0.00,,,0.00,weatherlink.com 1.10,2013-07-07 23:16:00,
2013-07-07 19:31:00,76.3,72.0,29.96,WSW,251,6.0,9.0,86,0.00,,,0.00,weatherlink.com 1.10,2013-07-07 23:31:00,
2013-07-07 19:46:00,75.6,72.0,29.96,West,259,0.0,10.0,88,0.00,,,0.00,weatherlink.com 1.10,2013-07-07 23:46:00,
2013-07-07 20:01:00,75.0,72.0,29.95,West,270,4.0,4.0,89,0.00,,,0.00,weatherlink.com 1.10,2013-07-08 00:01:00,
2013-07-07 20:16:00,74.6,72.0,29.96,WNW,288,1.0,4.0,90,0.00,,,0.00,weatherlink.com 1.10,2013-07-08 00:16:00,
2013-07-07 20:31:00,74.3,72.0,29.96,SW,223,3.0,6.0,92,0.00,,,0.00,weatherlink.com 1.10,2013-07-08 00:31:00,
2013-07-07 20:46:00,74.2,72.0,29.97,WNW,285,2.0,7.0,92,0.00,,,0.00,weatherlink.com 1.10,2013-07-08 00:46:00,
2013-07-07 21:01:00,74.3,72.0,29.98,WSW,241,1.0,7.0,92,0.00,,,0.00,weatherlink.com 1.10,2013-07-08 01:01:00,
2013-07-07 21:16:00,74.3,72.0,29.98,SSE,162,1.0,8.0,92,0.00,,,0.00,weatherlink.com 1.10,2013-07-08 01:16:00,
2013-07-07 21:31:00,74.3,72.0,29.99,WSW,245,1.0,5.0,93,0.00,,,0.00,weatherlink.com 1.10,2013-07-08 01:31:00,
2013-07-07 21:47:00,74.2,72.0,30.00,West,261,3.0,8.0,93,0.00,,,0.00,weatherlink.com 1.10,2013-07-08 01:47:00,
2013-07-07 22:02:00,74.0,72.0,30.00,West,275,3.0,7.0,93,0.00,,,0.00,weatherlink.com 1.10,2013-07-08 02:02:00,
2013-07-07 22:17:00,73.9,72.0,30.00,WSW,255,2.0,5.0,93,0.00,,,0.00,weatherlink.com 1.10,2013-07-08 02:17:00,
2013-07-07 22:32:00,73.8,72.0,30.00,WNW,296,3.0,9.0,93,0.00,,,0.00,weatherlink.com 1.10,2013-07-08 02:32:00,
2013-07-07 22:47:00,73.7,72.0,30.00,WSW,257,2.0,7.0,93,0.00,,,0.00,weatherlink.com 1.10,2013-07-08 02:47:00,
2013-07-07 23:02:00,73.6,72.0,29.99,SW,232,0.0,8.0,93,0.00,,,0.00,weatherlink.com 1.10,2013-07-08 03:02:00,
2013-07-07 23:17:00,73.6,72.0,29.99,South,176,1.0,6.0,93,0.00,,,0.00,weatherlink.com 1.10,2013-07-08 03:17:00,
2013-07-07 23:32:00,73.5,71.0,29.98,SE,144,1.0,3.0,93,0.00,,,0.00,weatherlink.com 1.10,2013-07-08 03:32:00,
2013-07-07 23:47:00,73.4,71.0,29.99,SSE,150,0.0,2.0,93,0.00,,,0.00,weatherlink.com 1.10,2013-07-08 03:47:00,